createdAt,value
2023-09-29T00:00:04.982Z,93
2023-09-29T00:16:01.728Z,93
2023-09-29T00:31:02.424Z,94
2023-09-29T00:46:03.472Z,94
2023-09-29T01:00:04.599Z,94
2023-09-29T01:16:00.703Z,94
2023-09-29T01:31:01.649Z,94
2023-09-29T01:46:02.863Z,94
2023-09-29T02:00:03.931Z,94
2023-09-29T02:16:05.093Z,94
2023-09-29T02:31:01.153Z,94
2023-09-29T02:46:02.476Z,94
2023-09-29T03:00:03.318Z,94
2023-09-29T03:16:04.313Z,94
2023-09-29T03:31:05.296Z,94
2023-09-29T03:46:01.442Z,94
2023-09-29T04:00:02.603Z,94
2023-09-29T04:16:03.665Z,95
2023-09-29T04:31:04.758Z,95
2023-09-29T04:46:00.801Z,95
2023-09-29T05:00:01.779Z,95
2023-09-29T05:16:03.062Z,95
2023-09-29T05:31:04.498Z,95
2023-09-29T05:46:00.815Z,95
2023-09-29T06:00:01.683Z,96
2023-09-29T06:16:02.934Z,96
2023-09-29T06:31:04.008Z,96
2023-09-29T06:46:05.089Z,96
2023-09-29T07:00:01.116Z,96
2023-09-29T07:16:02.140Z,95
2023-09-29T07:31:03.472Z,94
2023-09-29T07:46:04.417Z,92
2023-09-29T08:00:05.311Z,90
2023-09-29T08:16:01.376Z,85
2023-09-29T08:31:02.917Z,82
2023-09-29T08:46:03.874Z,78
2023-09-29T09:00:05.264Z,76
2023-09-29T09:16:00.970Z,73
2023-09-29T09:31:02.376Z,70
2023-09-29T09:46:03.577Z,70
2023-09-29T10:00:04.442Z,69
2023-09-29T10:16:14.139Z,68
2023-09-29T10:31:01.571Z,68
2023-09-29T10:46:02.715Z,63
2023-09-29T11:00:03.965Z,61
2023-09-29T11:16:05.061Z,64
2023-09-29T11:31:01.409Z,60
2023-09-29T11:46:02.632Z,61
2023-09-29T12:00:03.542Z,58
2023-09-29T12:16:04.593Z,58
2023-09-29T12:31:00.590Z,60
2023-09-29T12:46:01.756Z,56
2023-09-29T13:00:02.854Z,55
2023-09-29T13:16:04.178Z,55
2023-09-29T13:31:05.243Z,56
2023-09-29T13:46:01.132Z,57
2023-09-29T14:00:02.228Z,58
2023-09-29T14:16:03.269Z,60
2023-09-29T14:31:04.434Z,58
2023-09-29T14:46:00.425Z,57
2023-09-29T15:00:01.292Z,58
2023-09-29T15:16:02.533Z,58
2023-09-29T15:31:03.940Z,59
2023-09-29T15:46:04.899Z,60
2023-09-29T16:00:00.722Z,60
2023-09-29T16:16:01.804Z,63
2023-09-29T16:31:02.972Z,67
2023-09-29T16:46:04.208Z,70
2023-09-29T17:00:05.196Z,73
2023-09-29T17:16:01.302Z,74
2023-09-29T17:31:02.604Z,77
2023-09-29T17:46:03.731Z,79
2023-09-29T18:00:04.750Z,80
2023-09-29T18:16:00.985Z,82
2023-09-29T18:31:02.004Z,84
2023-09-29T18:46:03.149Z,85
2023-09-29T19:00:04.259Z,86
2023-09-29T19:16:00.282Z,86
2023-09-29T19:31:01.242Z,87
2023-09-29T19:46:02.339Z,88
2023-09-29T20:00:03.606Z,88
2023-09-29T20:16:04.818Z,89
2023-09-29T20:31:00.770Z,90
2023-09-29T20:46:01.880Z,90
2023-09-29T21:00:03.319Z,90
2023-09-29T21:16:04.390Z,90
2023-09-29T21:31:00.443Z,90
2023-09-29T21:46:01.667Z,90
2023-09-29T22:00:02.769Z,90
2023-09-29T22:16:04.029Z,91
2023-09-29T22:31:05.143Z,91
2023-09-29T22:46:01.235Z,91
2023-09-29T23:00:02.096Z,92
2023-09-29T23:16:03.799Z,92
2023-09-29T23:31:04.762Z,92
2023-09-29T23:46:00.860Z,92
